Map

Track Data

SID SEASON NUMBER BASIN SUBBASIN NAME ISO_TIME NATURE LAT LON WMO_WIND WMO_PRES WMO_AGENCY TRACK_TYPE DIST2LAND LANDFALL IFLAG USA_AGENCY USA_ATCF_ID USA_LAT USA_LON USA_RECORD USA_STATUS USA_WIND USA_PRES USA_SSHS USA_R34_NE USA_R34_SE USA_R34_SW USA_R34_NW USA_R50_NE USA_R50_SE USA_R50_SW USA_R50_NW USA_R64_NE USA_R64_SE USA_R64_SW USA_R64_NW USA_POCI USA_ROCI USA_RMW USA_EYE TOKYO_LAT TOKYO_LON TOKYO_GRADE TOKYO_WIND TOKYO_PRES TOKYO_R50_DIR TOKYO_R50_LONG TOKYO_R50_SHORT TOKYO_R30_DIR TOKYO_R30_LONG TOKYO_R30_SHORT TOKYO_LAND CMA_LAT CMA_LON CMA_CAT CMA_WIND CMA_PRES HKO_LAT HKO_LON HKO_CAT HKO_WIND HKO_PRES NEWDELHI_LAT NEWDELHI_LON NEWDELHI_GRADE NEWDELHI_WIND NEWDELHI_PRES NEWDELHI_CI NEWDELHI_DP NEWDELHI_POCI REUNION_LAT REUNION_LON REUNION_TYPE REUNION_WIND REUNION_PRES REUNION_TNUM REUNION_CI REUNION_RMW REUNION_R34_NE REUNION_R34_SE REUNION_R34_SW REUNION_R34_NW REUNION_R50_NE REUNION_R50_SE REUNION_R50_SW REUNION_R50_NW REUNION_R64_NE REUNION_R64_SE REUNION_R64_SW REUNION_R64_NW BOM_LAT BOM_LON BOM_TYPE BOM_WIND BOM_PRES BOM_TNUM BOM_CI BOM_RMW BOM_R34_NE BOM_R34_SE BOM_R34_SW BOM_R34_NW BOM_R50_NE BOM_R50_SE BOM_R50_SW BOM_R50_NW BOM_R64_NE BOM_R64_SE BOM_R64_SW BOM_R64_NW BOM_ROCI BOM_POCI BOM_EYE BOM_POS_METHOD BOM_PRES_METHOD NADI_LAT NADI_LON NADI_CAT NADI_WIND NADI_PRES WELLINGTON_LAT WELLINGTON_LON WELLINGTON_WIND WELLINGTON_PRES DS824_LAT DS824_LON DS824_STAGE DS824_WIND DS824_PRES TD9636_LAT TD9636_LON TD9636_STAGE TD9636_WIND TD9636_PRES TD9635_LAT TD9635_LON TD9635_WIND TD9635_PRES TD9635_ROCI NEUMANN_LAT NEUMANN_LON NEUMANN_CLASS NEUMANN_WIND NEUMANN_PRES MLC_LAT MLC_LON MLC_CLASS MLC_WIND MLC_PRES USA_GUST BOM_GUST BOM_GUST_PER REUNION_GUST REUNION_GUST_PER USA_SEAHGT USA_SEARAD_NE USA_SEARAD_SE USA_SEARAD_SW USA_SEARAD_NW STORM_SPEED STORM_DIR
1982199N11257 1982 49 EP MM FABIO 1982-07-17 12:00:00 TS 11.2000 -103.200 25 hurdat_epa main 719 712 O_________O___ hurdat_epa EP061982 11.2000 -103.200 TD 25 -1 11.2000 -103.200 1 25 4 304
1982199N11257 1982 49 EP MM FABIO 1982-07-17 15:00:00 TS 11.2993 -103.352 main 715 705 P_________P___ EP061982 11.3000 -103.350 TD 27 -1 11.2970 -103.356 1 27 4 304
1982199N11257 1982 49 EP MM FABIO 1982-07-17 18:00:00 TS 11.3988 -103.502 30 hurdat_epa main 709 702 O_________P___ hurdat_epa EP061982 11.4000 -103.500 TD 30 -1 11.3951 -103.510 1 30 4 304
1982199N11257 1982 49 EP MM FABIO 1982-07-17 21:00:00 TS 11.4989 -103.652 main 707 696 P_________P___ EP061982 11.5000 -103.650 TD 32 -1 11.4957 -103.659 1 32 4 305
1982199N11257 1982 49 EP MM FABIO 1982-07-18 00:00:00 TS 11.6000 -103.800 35 hurdat_epa main 701 695 O_________O___ hurdat_epa EP061982 11.6000 -103.800 TS 35 0 11.6000 -103.800 2 35 3 304
1982199N11257 1982 49 EP MM FABIO 1982-07-18 03:00:00 TS 11.6915 -103.946 main 695 690 P_________P___ EP061982 11.6850 -103.950 TS 37 0 11.7112 -103.934 2 37 4 306
1982199N11257 1982 49 EP MM FABIO 1982-07-18 06:00:00 TS 11.8100 -104.093 40 hurdat_epa main 695 680 O_________P___ hurdat_epa EP061982 11.8000 -104.100 TS 40 0 11.8399 -104.070 2 40 4 315
1982199N11257 1982 49 EP MM FABIO 1982-07-18 09:00:00 TS 11.9771 -104.237 main 680 672 P_________P___ EP061982 11.9700 -104.243 TS 42 0 11.9986 -104.222 2 42 5 322
1982199N11257 1982 49 EP MM FABIO 1982-07-18 12:00:00 TS 12.2000 -104.400 45 hurdat_epa main 672 651 O_________O___ hurdat_epa EP061982 12.2000 -104.400 TS 45 0 12.2000 -104.400 2 45 6 326
1982199N11257 1982 49 EP MM FABIO 1982-07-18 15:00:00 TS 12.4785 -104.589 main 651 627 P_________P___ EP061982 12.4850 -104.578 TS 50 0 12.4591 -104.623 2 48 7 325
1982199N11257 1982 49 EP MM FABIO 1982-07-18 18:00:00 TS 12.7898 -104.818 55 hurdat_epa main 627 606 O_________P___ hurdat_epa EP061982 12.8000 -104.800 TS 55 0 12.7592 -104.873 2 52 8 321
1982199N11257 1982 49 EP MM FABIO 1982-07-18 21:00:00 TS 13.0949 -105.103 main 606 584 P_________P___ EP061982 13.1000 -105.092 TS 57 0 13.0796 -105.136 2 56 8 317
1982199N11257 1982 49 EP MM FABIO 1982-07-19 00:00:00 TS 13.4000 -105.400 60 hurdat_epa main 584 561 O_________O___ hurdat_epa EP061982 13.4000 -105.400 TS 60 0 13.4000 -105.400 2 60 8 319
1982199N11257 1982 49 EP MM FABIO 1982-07-19 03:00:00 TS 13.6922 -105.640 main 561 545 P_________P___ EP061982 13.6924 -105.643 TS 62 0 13.6918 -105.634 2 62 8 321
1982199N11257 1982 49 EP MM FABIO 1982-07-19 06:00:00 TS 14.0000 -105.900 65 hurdat_epa main 545 526 O_________O___ hurdat_epa EP061982 14.0000 -105.900 HU 65 1 14.0000 -105.900 3 65 9 319
1982199N11257 1982 49 EP MM FABIO 1982-07-19 09:00:00 TS 14.3411 -106.227 main 532 519 P_________P___ EP061982 14.3425 -106.228 HU 65 1 14.3369 -106.227 3 65 10 316
1982199N11257 1982 49 EP MM FABIO 1982-07-19 12:00:00 TS 14.7000 -106.600 65 hurdat_epa main 521 517 O_________O___ hurdat_epa EP061982 14.7000 -106.600 HU 65 1 14.7000 -106.600 4 65 10 314
1982199N11257 1982 49 EP MM FABIO 1982-07-19 15:00:00 TS 15.0471 -106.984 main 524 501 P_________P___ EP061982 15.0349 -106.985 HU 67 1 15.0836 -106.982 4 66 11 313
1982199N11257 1982 49 EP MM FABIO 1982-07-19 18:00:00 TS 15.4215 -107.398 70 hurdat_epa main 506 489 O_________P___ hurdat_epa EP061982 15.4000 -107.400 HU 70 1 15.4860 -107.393 4 67 12 314
1982199N11257 1982 49 EP MM FABIO 1982-07-19 21:00:00 TS 15.8501 -107.840 main 487 487 P_________P___ EP061982 15.8350 -107.843 HU 70 1 15.8954 -107.832 4 68 12 315
1982199N11257 1982 49 EP MM FABIO 1982-07-20 00:00:00 TS 16.3000 -108.300 70 hurdat_epa main 492 483 O_________O___ hurdat_epa EP061982 16.3000 -108.300 HU 70 1 16.3000 -108.300 4 70 13 316
1982199N11257 1982 49 EP MM FABIO 1982-07-20 03:00:00 TS 16.7577 -108.739 main 483 483 P_________P___ EP061982 16.7722 -108.728 HU 70 1 16.7141 -108.772 4 68 12 315
1982199N11257 1982 49 EP MM FABIO 1982-07-20 06:00:00 TS 17.1791 -109.219 70 hurdat_epa main 497 497 O_________P___ hurdat_epa EP061982 17.2000 -109.200 HU 70 1 17.1166 -109.275 4 67 13 308
1982199N11257 1982 49 EP MM FABIO 1982-07-20 09:00:00 TS 17.5245 -109.782 main 532 526 P_________P___ EP061982 17.5374 -109.770 HU 67 1 17.4858 -109.816 4 66 13 299
1982199N11257 1982 49 EP MM FABIO 1982-07-20 12:00:00 TS 17.8000 -110.400 65 hurdat_epa main 571 554 O_________O___ hurdat_epa EP061982 17.8000 -110.400 HU 65 1 17.8000 -110.400 4 65 13 293
1982199N11257 1982 49 EP MM FABIO 1982-07-20 15:00:00 TS 18.0270 -111.041 main 557 548 P_________P___ EP061982 18.0223 -111.035 HU 65 1 18.0411 -111.057 4 63 13 288
1982199N11257 1982 49 EP MM FABIO 1982-07-20 18:00:00 TS 18.2064 -111.713 65 hurdat_epa main 554 551 O_________P___ hurdat_epa EP061982 18.2000 -111.700 HU 65 1 18.2258 -111.751 4 62 14 284
1982199N11257 1982 49 EP MM FABIO 1982-07-20 21:00:00 TS 18.3613 -112.422 main 561 561 P_________P___ EP061982 18.3576 -112.415 HU 62 0 18.3724 -112.444 4 61 14 283
1982199N11257 1982 49 EP MM FABIO 1982-07-21 00:00:00 TS 18.5000 -113.100 60 hurdat_epa main 588 588 O_________O___ hurdat_epa EP061982 18.5000 -113.100 TS 60 0 18.5000 -113.100 2 60 12 284
1982199N11257 1982 49 EP MM FABIO 1982-07-21 03:00:00 TS 18.6545 -113.677 main 606 606 P_________P___ EP061982 18.6572 -113.680 TS 57 0 18.6464 -113.669 2 57 11 286
1982199N11257 1982 49 EP MM FABIO 1982-07-21 06:00:00 TS 18.7946 -114.199 55 hurdat_epa main 632 632 O_________P___ hurdat_epa EP061982 18.8000 -114.200 TS 55 0 18.7786 -114.195 2 55 10 284
1982199N11257 1982 49 EP MM FABIO 1982-07-21 09:00:00 TS 18.9046 -114.706 main 661 661 P_________P___ EP061982 18.9073 -114.708 TS 52 0 18.8965 -114.700 2 52 10 282
1982199N11257 1982 49 EP MM FABIO 1982-07-21 12:00:00 TS 19.0000 -115.200 50 hurdat_epa main 693 693 O_________O___ hurdat_epa EP061982 19.0000 -115.200 TS 50 0 19.0000 -115.200 2 50 10 282
1982199N11257 1982 49 EP MM FABIO 1982-07-21 15:00:00 TS 19.1048 -115.704 main 725 725 P_________P___ EP061982 19.1073 -115.693 TS 47 0 19.0973 -115.737 2 47 10 281
1982199N11257 1982 49 EP MM FABIO 1982-07-21 18:00:00 TS 19.1949 -116.218 45 hurdat_epa main 746 746 O_________P___ hurdat_epa EP061982 19.2000 -116.200 TS 45 0 19.1798 -116.273 2 45 10 279
1982199N11257 1982 49 EP MM FABIO 1982-07-21 21:00:00 TS 19.2606 -116.773 main 773 773 P_________P___ EP061982 19.2651 -116.765 TS 42 0 19.2473 -116.797 2 42 10 276
1982199N11257 1982 49 EP MM FABIO 1982-07-22 00:00:00 TS 19.3000 -117.300 40 hurdat_epa main 807 807 O_________O___ hurdat_epa EP061982 19.3000 -117.300 TS 40 0 19.3000 -117.300 2 40 9 273
1982199N11257 1982 49 EP MM FABIO 1982-07-22 03:00:00 TS 19.3094 -117.723 main 834 834 P_________P___ EP061982 19.2996 -117.708 TS 40 0 19.3387 -117.768 2 38 8 271
1982199N11257 1982 49 EP MM FABIO 1982-07-22 06:00:00 TS 19.3160 -118.129 40 hurdat_epa main 863 863 O_________P___ hurdat_epa EP061982 19.3000 -118.100 TS 40 0 19.3641 -118.215 2 37 8 273
1982199N11257 1982 49 EP MM FABIO 1982-07-22 09:00:00 TS 19.3525 -118.603 main 893 893 P_________P___ EP061982 19.3425 -118.585 TS 37 0 19.3825 -118.655 2 36 9 275
1982199N11257 1982 49 EP MM FABIO 1982-07-22 12:00:00 TS 19.4000 -119.100 35 hurdat_epa main 932 932 O_________O___ hurdat_epa EP061982 19.4000 -119.100 TS 35 0 19.4000 -119.100 2 35 9 276
1982199N11257 1982 49 EP MM FABIO 1982-07-22 15:00:00 TS 19.4493 -119.599 main 971 964 P_________P___ EP061982 19.4574 -119.607 TS 32 -1 19.4248 -119.572 2 33 9 275
1982199N11257 1982 49 EP MM FABIO 1982-07-22 18:00:00 TS 19.4874 -120.088 30 hurdat_epa main 1005 1005 O_________P___ hurdat_epa EP061982 19.5000 -120.100 TD 30 -1 19.4497 -120.050 2 32 9 273
1982199N11257 1982 49 EP MM FABIO 1982-07-22 21:00:00 TS 19.4992 -120.550 main 1047 1047 P_________P___ EP061982 19.5073 -120.558 TD 30 -1 19.4748 -120.528 2 31 9 271
1982199N11257 1982 49 EP MM FABIO 1982-07-23 00:00:00 TS 19.5000 -121.000 30 hurdat_epa main 1082 1082 O_________O___ hurdat_epa EP061982 19.5000 -121.000 TD 30 -1 19.5000 -121.000 1 30 8 270
1982199N11257 1982 49 EP MM FABIO 1982-07-23 03:00:00 TS 19.4994 -121.449 main 1116 1116 P_________P___ EP061982 19.4924 -121.450 TD 30 -1 19.5203 -121.445 1 30 8 271
1982199N11257 1982 49 EP MM FABIO 1982-07-23 06:00:00 TS 19.5104 -121.896 30 hurdat_epa main 1151 1151 O_________P___ hurdat_epa EP061982 19.5000 -121.900 TD 30 -1 19.5416 -121.885 1 30 8 273
1982199N11257 1982 49 EP MM FABIO 1982-07-23 09:00:00 TS 19.5485 -122.340 main 1178 1177 P_________P___ EP061982 19.5423 -122.342 TD 30 -1 19.5671 -122.333 1 30 9 276
1982199N11257 1982 49 EP MM FABIO 1982-07-23 12:00:00 TS 19.6000 -122.800 30 hurdat_epa main 1203 1203 O_________O___ hurdat_epa EP061982 19.6000 -122.800 TD 30 -1 19.6000 -122.800 1 30 9 277
1982199N11257 1982 49 EP MM FABIO 1982-07-23 15:00:00 TS 19.6511 -123.289 main 1229 1229 P_________P___ EP061982 19.6499 -123.285 TD 30 -1 19.6548 -123.299 1 30 10 276
1982199N11257 1982 49 EP MM FABIO 1982-07-23 18:00:00 TS 19.7037 -123.805 30 hurdat_epa main 1264 1264 O_________P___ hurdat_epa EP061982 19.7000 -123.800 TD 30 -1 19.7146 -123.820 1 30 10 276
1982199N11257 1982 49 EP MM FABIO 1982-07-23 21:00:00 TS 19.7598 -124.346 main 1293 1293 P_________P___ EP061982 19.7574 -124.342 TD 30 -1 19.7672 -124.355 1 30 10 275
1982199N11257 1982 49 EP MM FABIO 1982-07-24 00:00:00 TS 19.8000 -124.900 30 hurdat_epa main 1338 1338 O_________O___ hurdat_epa EP061982 19.8000 -124.900 TD 30 -1 19.8000 -124.900 1 30 10 273
1982199N11257 1982 49 EP MM FABIO 1982-07-24 03:00:00 TS 19.8132 -125.447 main 1376 1376 P_________P___ EP061982 19.8148 -125.450 TD 30 -1 19.8083 -125.439 1 28 10 270
1982199N11257 1982 49 EP MM FABIO 1982-07-24 06:00:00 TS 19.7986 -125.996 30 hurdat_epa main 1424 1424 O_________P___ hurdat_epa EP061982 19.8000 -126.000 TD 30 -1 19.7943 -125.985 1 27 10 267
1982199N11257 1982 49 EP MM FABIO 1982-07-24 09:00:00 TS 19.7632 -126.547 main 1464 1464 P_________P___ EP061982 19.7648 -126.550 TD 27 -1 19.7582 -126.539 1 26 10 265
1982199N11257 1982 49 EP MM FABIO 1982-07-24 12:00:00 TS 19.7000 -127.100 25 hurdat_epa main 1520 1520 O_________O___ hurdat_epa EP061982 19.7000 -127.100 TD 25 -1 19.7000 -127.100 1 25 10 261
1982199N11257 1982 49 EP MM FABIO 1982-07-24 15:00:00 TS 19.6077 -127.648 main 1568 1568 P_________P___ EP061982 19.6073 -127.643 TD 25 -1 19.6089 -127.663 1 25 11 259
1982199N11257 1982 49 EP MM FABIO 1982-07-24 18:00:00 TS 19.4999 -128.208 25 hurdat_epa main 1625 1625 O_________P___ hurdat_epa EP061982 19.5000 -128.200 TD 25 -1 19.4994 -128.233 1 25 11 259
1982199N11257 1982 49 EP MM FABIO 1982-07-24 21:00:00 TS 19.3918 -128.797 main 1682 1682 P_________P___ EP061982 19.3924 -128.793 TD 25 -1 19.3902 -128.812 1 25 11 260
1982199N11257 1982 49 EP MM FABIO 1982-07-25 00:00:00 TS 19.3000 -129.400 25 hurdat_epa main 1739 1739 O_________O___ hurdat_epa EP061982 19.3000 -129.400 TD 25 -1 19.3000 -129.400 1 25 11 262
1982199N11257 1982 49 EP MM FABIO 1982-07-25 03:00:00 TS 19.2405 -130.001 main 1797 1797 P_________P___ EP061982 19.2404 -130.002 TD 25 -1 19.2411 -129.997 1 25 11 265
1982199N11257 1982 49 EP MM FABIO 1982-07-25 06:00:00 TS 19.2000 -130.600 25 hurdat_epa main 1850 O_________O___ hurdat_epa EP061982 19.2000 -130.600 TD 25 -1 19.2000 -130.600 1 25 11 266

About IBTrACS Database

This database is a web-friendly format of International Best Track Archive for Climate Stewardship (IBTrACS), a global best track data archive curated by NOAA dating back to 1842.

Updated: 2021-12-06